This is the latest recevied weather packets stored in our database for station/object N7TUG-8. If no packets are shown the sender has not sent any weather packets the latest 10 day(s).
| Time | Temp. | Humidity | Pressure | Rain* | Wind** | Luminosity | Snow |
|---|---|---|---|---|---|---|---|
| 1777952501 | 19.44° C | 71% | 1009.1 hPa | 0 mm | 2.24 m/s, 163° | - | - |
| 1777952012 | 20° C | 70% | 1008.9 hPa | 0 mm | 2.24 m/s, 173° | - | - |
| 1777951646 | 20° C | 70% | 1008.9 hPa | 0 mm | 2.24 m/s, 168° | - | - |
| 1777951276 | 20° C | 69% | 1008.9 hPa | 0 mm | 2.68 m/s, 166° | - | - |
| 1777950795 | 20.56° C | 68% | 1008.8 hPa | 0 mm | 3.13 m/s, 162° | - | - |
| 1777950442 | 21.11° C | 65% | 1008.7 hPa | 0 mm | 3.13 m/s, 159° | - | - |
| 1777950011 | 23.33° C | 60% | 1008.5 hPa | 0 mm | 1.34 m/s, 192° | - | - |
| 1777949627 | 23.33° C | 59% | 1008.5 hPa | 0 mm | 0.45 m/s, 241° | - | - |
| 1777949106 | 23.33° C | 57% | 1008.4 hPa | 0 mm | 0.89 m/s, 253° | - | - |
| 1777948315 | 24.44° C | 56% | 1008.4 hPa | 0 mm | 0.89 m/s, 238° | - | - |
| 1777947501 | 22.78° C | 59% | 1008.4 hPa | 0 mm | 1.34 m/s, 325° | - | - |
| 1777947208 | 22.78° C | 59% | 1008.4 hPa | 0 mm | 2.24 m/s, 320° | - | - |
| 1777946701 | 24.44° C | 58% | 1008.3 hPa | 0 mm | 2.24 m/s, 319° | - | - |
| 1777946386 | 25° C | 58% | 1008.3 hPa | 0 mm | 1.79 m/s, 182° | - | - |
| 1777945755 | 25° C | 58% | 1008.2 hPa | 0 mm | 2.24 m/s, 168° | - | - |
| 1777944895 | 25° C | 57% | 1008.2 hPa | 0 mm | 2.68 m/s, 165° | - | - |
| 1777944105 | 25.56° C | 57% | 1008.3 hPa | 0 mm | 2.24 m/s, 169° | - | - |
| 1777943251 | 25° C | 57% | 1008.3 hPa | 0 mm | 2.68 m/s, 156° | - | - |
| 1777943036 | 25.56° C | 57% | 1008.3 hPa | 0 mm | 2.68 m/s, 165° | - | - |
| 1777942386 | 25.56° C | 55% | 1008.3 hPa | 0 mm | 2.24 m/s, 168° | - | - |
| 1777942227 | 25.56° C | 55% | 1008.3 hPa | 0 mm | 2.24 m/s, 168° | - | - |
| 1777941427 | 25.56° C | 54% | 1008.4 hPa | 0 mm | 2.68 m/s, 170° | - | - |
| 1777941387 | 25.56° C | 54% | 1008.4 hPa | 0 mm | 2.68 m/s, 170° | - | - |
| 1777940576 | 26.11° C | 53% | 1008.4 hPa | 0 mm | 2.24 m/s, 166° | - | - |
| 1777939746 | 26.11° C | 52% | 1008.5 hPa | 0 mm | 1.79 m/s, 157° | - | - |
* Rain latest hour (hover to see other rain measurements)
** Current wind speed in m/s (hover to see current wind gust speed)